Portada
METAR-TAF:

METAR-TAF

Aeropuertos :

Aeropuerto de Hamburgo Finkenwerder

Finkenwerder, Alemania

latitud: 53-32N, longitud: 009-50E, altitud: 5 m

Observación

El informe se hizo hace 12 minutos, a las 13:20 UTC
Viento 13 kt del sur-suroeste
Temperatura 14°C
Humedad 77%
Presión 1002 hPa
Visibilidad 10 km o más

METAR: EDHI 251320Z AUTO 20013KT 9999 // FEW037/// SCT076/// OVC086/// 14/10 Q1002

Hora: 14:32 (13:32 UTC)

Pronóstico

El informe se hizo hace 29 horas y 32 minutos, a las 08:00 UTC
Pronóstico válido del 24 a las 09 UTC al 24 a las 18 UTC
Viento 11 kt del suroeste
Visibilidad 10 km o más
Nubes dispersas a una altura de 2000 ft
Temporalmente
del 24 a las 10 UTC al 24 a las 13 UTC
Viento 15 kt del suroeste con ráfagas de 25 kt
Evolucionando progresivamente
del 24 a las 15 UTC al 24 a las 17 UTC
Viento 6 kt del sur

TAF: EDHI 240800Z 2409/2418 22011KT 9999 SCT020 TEMPO 2410/2413 23015G25KT BECMG 2415/2417 19006KT

Observaciones y pronósticos meteorológicos de más de 4000 aeropuertos (mensajes METAR y TAF).

Los puntos amarillos y rojos representan las estaciones disponibles.

Ponga el ratón en el punto deseado para ver el nombre de la estación.

Haga clic para ver las observaciones y los pronósticos meteorológicos.

Para cambiar el mapa : haga clic en los botones verdes con una cruz de color negro para hacer un zoom, en el botón verde con un guión para alejar o en las flechas verdes para mapas adyacentes.


METAR-TAF: